sensor_id;sensor_type;location;lat;lon;timestamp;P1;durP1;ratioP1;P2;durP2;ratioP2
16173;SDS011;14031;50.158;8.626;2023-04-25T00:01:08;6.07;;;5.67;;
16173;SDS011;14031;50.158;8.626;2023-04-25T00:03:38;6.13;;;5.70;;
16173;SDS011;14031;50.158;8.626;2023-04-25T00:06:05;5.67;;;5.10;;
16173;SDS011;14031;50.158;8.626;2023-04-25T00:08:33;6.13;;;4.90;;
16173;SDS011;14031;50.158;8.626;2023-04-25T00:11:01;5.23;;;4.90;;
16173;SDS011;14031;50.158;8.626;2023-04-25T00:13:28;5.50;;;5.00;;
16173;SDS011;14031;50.158;8.626;2023-04-25T00:15:55;6.20;;;5.60;;
16173;SDS011;14031;50.158;8.626;2023-04-25T00:18:24;5.40;;;5.00;;
16173;SDS011;14031;50.158;8.626;2023-04-25T00:20:53;5.67;;;5.27;;
16173;SDS011;14031;50.158;8.626;2023-04-25T00:23:20;5.40;;;5.00;;
16173;SDS011;14031;50.158;8.626;2023-04-25T00:25:49;5.47;;;5.03;;
16173;SDS011;14031;50.158;8.626;2023-04-25T00:28:17;6.13;;;5.60;;
16173;SDS011;14031;50.158;8.626;2023-04-25T00:30:43;6.00;;;5.60;;
16173;SDS011;14031;50.158;8.626;2023-04-25T00:33:10;6.07;;;5.57;;
16173;SDS011;14031;50.158;8.626;2023-04-25T00:35:38;6.30;;;5.40;;
16173;SDS011;14031;50.158;8.626;2023-04-25T00:38:05;5.90;;;5.43;;
16173;SDS011;14031;50.158;8.626;2023-04-25T00:40:32;5.27;;;4.97;;
16173;SDS011;14031;50.158;8.626;2023-04-25T00:42:59;5.70;;;5.40;;
16173;SDS011;14031;50.158;8.626;2023-04-25T00:45:27;6.00;;;5.60;;
16173;SDS011;14031;50.158;8.626;2023-04-25T00:47:55;6.63;;;6.03;;
16173;SDS011;14031;50.158;8.626;2023-04-25T00:50:22;6.63;;;6.13;;
16173;SDS011;14031;50.158;8.626;2023-04-25T00:52:50;5.10;;;4.80;;
16173;SDS011;14031;50.158;8.626;2023-04-25T00:55:18;6.23;;;5.73;;
16173;SDS011;14031;50.158;8.626;2023-04-25T00:57:46;6.00;;;5.60;;
16173;SDS011;14031;50.158;8.626;2023-04-25T01:00:13;6.13;;;5.70;;
16173;SDS011;14031;50.158;8.626;2023-04-25T01:02:40;6.90;;;6.50;;
16173;SDS011;14031;50.158;8.626;2023-04-25T01:05:08;6.43;;;5.83;;
16173;SDS011;14031;50.158;8.626;2023-04-25T01:07:35;5.73;;;5.43;;
16173;SDS011;14031;50.158;8.626;2023-04-25T01:10:04;6.00;;;5.60;;
16173;SDS011;14031;50.158;8.626;2023-04-25T01:12:32;5.37;;;5.03;;
16173;SDS011;14031;50.158;8.626;2023-04-25T01:15:03;5.10;;;4.70;;
16173;SDS011;14031;50.158;8.626;2023-04-25T01:17:30;5.13;;;4.50;;
16173;SDS011;14031;50.158;8.626;2023-04-25T01:19:58;4.73;;;4.43;;
16173;SDS011;14031;50.158;8.626;2023-04-25T01:22:26;5.23;;;4.70;;
16173;SDS011;14031;50.158;8.626;2023-04-25T01:24:53;4.80;;;4.40;;
16173;SDS011;14031;50.158;8.626;2023-04-25T01:27:20;4.60;;;4.30;;
16173;SDS011;14031;50.158;8.626;2023-04-25T01:29:47;4.67;;;4.37;;
16173;SDS011;14031;50.158;8.626;2023-04-25T01:32:15;4.43;;;4.20;;
16173;SDS011;14031;50.158;8.626;2023-04-25T01:34:43;4.20;;;3.90;;
16173;SDS011;14031;50.158;8.626;2023-04-25T01:37:09;3.80;;;3.60;;
16173;SDS011;14031;50.158;8.626;2023-04-25T01:39:38;4.80;;;4.50;;
16173;SDS011;14031;50.158;8.626;2023-04-25T01:42:04;4.10;;;3.80;;
16173;SDS011;14031;50.158;8.626;2023-04-25T01:44:31;4.13;;;3.83;;
16173;SDS011;14031;50.158;8.626;2023-04-25T01:46:58;3.90;;;3.70;;
16173;SDS011;14031;50.158;8.626;2023-04-25T01:49:25;4.50;;;4.10;;
16173;SDS011;14031;50.158;8.626;2023-04-25T01:51:52;4.03;;;3.83;;
16173;SDS011;14031;50.158;8.626;2023-04-25T01:54:19;4.63;;;4.33;;
16173;SDS011;14031;50.158;8.626;2023-04-25T01:56:52;3.93;;;3.73;;
16173;SDS011;14031;50.158;8.626;2023-04-25T01:59:19;4.20;;;3.90;;
16173;SDS011;14031;50.158;8.626;2023-04-25T02:01:46;4.53;;;4.23;;
16173;SDS011;14031;50.158;8.626;2023-04-25T02:04:13;4.37;;;4.07;;
16173;SDS011;14031;50.158;8.626;2023-04-25T02:06:40;4.33;;;4.10;;
16173;SDS011;14031;50.158;8.626;2023-04-25T02:09:07;5.30;;;4.30;;
16173;SDS011;14031;50.158;8.626;2023-04-25T02:11:33;4.47;;;4.20;;
16173;SDS011;14031;50.158;8.626;2023-04-25T02:14:02;4.57;;;4.17;;
16173;SDS011;14031;50.158;8.626;2023-04-25T02:16:28;5.17;;;4.87;;
16173;SDS011;14031;50.158;8.626;2023-04-25T02:18:55;4.70;;;4.40;;
16173;SDS011;14031;50.158;8.626;2023-04-25T02:21:22;5.33;;;4.70;;
16173;SDS011;14031;50.158;8.626;2023-04-25T02:23:49;4.57;;;4.13;;
16173;SDS011;14031;50.158;8.626;2023-04-25T02:26:17;4.30;;;4.00;;
16173;SDS011;14031;50.158;8.626;2023-04-25T02:28:43;4.87;;;4.47;;
16173;SDS011;14031;50.158;8.626;2023-04-25T02:31:11;4.33;;;4.03;;
16173;SDS011;14031;50.158;8.626;2023-04-25T02:33:38;5.07;;;4.60;;
16173;SDS011;14031;50.158;8.626;2023-04-25T02:36:05;4.80;;;4.40;;
16173;SDS011;14031;50.158;8.626;2023-04-25T02:38:32;4.80;;;4.50;;
16173;SDS011;14031;50.158;8.626;2023-04-25T02:40:59;4.80;;;4.40;;
16173;SDS011;14031;50.158;8.626;2023-04-25T02:43:26;4.97;;;4.50;;
16173;SDS011;14031;50.158;8.626;2023-04-25T02:45:53;4.90;;;4.47;;
16173;SDS011;14031;50.158;8.626;2023-04-25T02:48:21;4.63;;;4.20;;
16173;SDS011;14031;50.158;8.626;2023-04-25T02:50:48;5.20;;;4.70;;
16173;SDS011;14031;50.158;8.626;2023-04-25T02:53:15;5.50;;;5.10;;
16173;SDS011;14031;50.158;8.626;2023-04-25T02:55:42;4.87;;;4.57;;
16173;SDS011;14031;50.158;8.626;2023-04-25T02:58:09;6.33;;;4.60;;
16173;SDS011;14031;50.158;8.626;2023-04-25T03:00:36;5.43;;;5.03;;
16173;SDS011;14031;50.158;8.626;2023-04-25T03:03:03;5.43;;;5.03;;
16173;SDS011;14031;50.158;8.626;2023-04-25T03:05:31;5.40;;;5.00;;
16173;SDS011;14031;50.158;8.626;2023-04-25T03:07:57;5.50;;;5.10;;
16173;SDS011;14031;50.158;8.626;2023-04-25T03:10:27;4.80;;;4.50;;
16173;SDS011;14031;50.158;8.626;2023-04-25T03:12:54;5.73;;;5.33;;
16173;SDS011;14031;50.158;8.626;2023-04-25T03:15:21;5.60;;;5.07;;
16173;SDS011;14031;50.158;8.626;2023-04-25T03:17:48;6.17;;;5.37;;
16173;SDS011;14031;50.158;8.626;2023-04-25T03:20:14;5.77;;;5.40;;
16173;SDS011;14031;50.158;8.626;2023-04-25T03:22:43;5.80;;;5.30;;
16173;SDS011;14031;50.158;8.626;2023-04-25T03:25:12;5.57;;;5.17;;
16173;SDS011;14031;50.158;8.626;2023-04-25T03:27:39;6.30;;;5.90;;
16173;SDS011;14031;50.158;8.626;2023-04-25T03:30:07;7.00;;;5.77;;
16173;SDS011;14031;50.158;8.626;2023-04-25T03:32:34;5.83;;;5.33;;
16173;SDS011;14031;50.158;8.626;2023-04-25T03:35:01;6.57;;;6.10;;
16173;SDS011;14031;50.158;8.626;2023-04-25T03:37:28;7.33;;;6.47;;
16173;SDS011;14031;50.158;8.626;2023-04-25T03:39:56;6.43;;;5.90;;
16173;SDS011;14031;50.158;8.626;2023-04-25T03:42:23;8.00;;;6.50;;
16173;SDS011;14031;50.158;8.626;2023-04-25T03:44:50;6.43;;;5.73;;
16173;SDS011;14031;50.158;8.626;2023-04-25T03:47:17;9.27;;;5.50;;
16173;SDS011;14031;50.158;8.626;2023-04-25T03:49:44;6.77;;;6.17;;
16173;SDS011;14031;50.158;8.626;2023-04-25T03:52:11;7.80;;;6.73;;
16173;SDS011;14031;50.158;8.626;2023-04-25T03:54:38;8.50;;;6.60;;
16173;SDS011;14031;50.158;8.626;2023-04-25T03:57:08;6.93;;;5.53;;
16173;SDS011;14031;50.158;8.626;2023-04-25T03:59:35;6.13;;;5.63;;
16173;SDS011;14031;50.158;8.626;2023-04-25T04:02:02;7.23;;;6.63;;
16173;SDS011;14031;50.158;8.626;2023-04-25T04:04:29;7.33;;;6.20;;
16173;SDS011;14031;50.158;8.626;2023-04-25T04:06:56;7.10;;;6.27;;
16173;SDS011;14031;50.158;8.626;2023-04-25T04:09:22;6.60;;;6.03;;
16173;SDS011;14031;50.158;8.626;2023-04-25T04:11:50;7.63;;;5.50;;
16173;SDS011;14031;50.158;8.626;2023-04-25T04:14:18;5.07;;;4.33;;
16173;SDS011;14031;50.158;8.626;2023-04-25T04:16:45;4.40;;;4.10;;
16173;SDS011;14031;50.158;8.626;2023-04-25T04:19:12;9.17;;;4.87;;
16173;SDS011;14031;50.158;8.626;2023-04-25T04:21:39;5.80;;;5.23;;
16173;SDS011;14031;50.158;8.626;2023-04-25T04:24:06;5.70;;;4.43;;
16173;SDS011;14031;50.158;8.626;2023-04-25T04:26:33;8.63;;;4.33;;
16173;SDS011;14031;50.158;8.626;2023-04-25T04:29:00;6.53;;;4.43;;
16173;SDS011;14031;50.158;8.626;2023-04-25T04:31:28;6.83;;;4.73;;
16173;SDS011;14031;50.158;8.626;2023-04-25T04:33:55;7.70;;;5.00;;
16173;SDS011;14031;50.158;8.626;2023-04-25T04:36:22;9.53;;;4.70;;
16173;SDS011;14031;50.158;8.626;2023-04-25T04:38:51;8.20;;;4.40;;
16173;SDS011;14031;50.158;8.626;2023-04-25T04:41:17;9.63;;;4.27;;
16173;SDS011;14031;50.158;8.626;2023-04-25T04:43:45;6.60;;;5.27;;
16173;SDS011;14031;50.158;8.626;2023-04-25T04:46:12;6.93;;;4.63;;
16173;SDS011;14031;50.158;8.626;2023-04-25T04:48:40;6.17;;;5.10;;
16173;SDS011;14031;50.158;8.626;2023-04-25T04:51:07;5.53;;;4.60;;
16173;SDS011;14031;50.158;8.626;2023-04-25T04:53:34;9.83;;;5.07;;
16173;SDS011;14031;50.158;8.626;2023-04-25T04:56:01;8.47;;;4.60;;
16173;SDS011;14031;50.158;8.626;2023-04-25T04:58:28;8.03;;;5.20;;
16173;SDS011;14031;50.158;8.626;2023-04-25T05:00:55;11.67;;;5.30;;
16173;SDS011;14031;50.158;8.626;2023-04-25T05:03:22;8.47;;;5.10;;
16173;SDS011;14031;50.158;8.626;2023-04-25T05:05:51;6.70;;;5.10;;
16173;SDS011;14031;50.158;8.626;2023-04-25T05:08:17;8.23;;;5.13;;
16173;SDS011;14031;50.158;8.626;2023-04-25T05:10:44;7.07;;;4.77;;
16173;SDS011;14031;50.158;8.626;2023-04-25T05:13:11;10.10;;;4.30;;
16173;SDS011;14031;50.158;8.626;2023-04-25T05:15:38;9.03;;;4.33;;
16173;SDS011;14031;50.158;8.626;2023-04-25T05:18:05;8.27;;;4.90;;
16173;SDS011;14031;50.158;8.626;2023-04-25T05:20:31;7.10;;;4.40;;
16173;SDS011;14031;50.158;8.626;2023-04-25T05:23:00;4.57;;;4.03;;
16173;SDS011;14031;50.158;8.626;2023-04-25T05:25:26;5.70;;;4.17;;
16173;SDS011;14031;50.158;8.626;2023-04-25T05:27:53;4.17;;;3.77;;
16173;SDS011;14031;50.158;8.626;2023-04-25T05:30:21;4.70;;;4.30;;
16173;SDS011;14031;50.158;8.626;2023-04-25T05:32:48;6.73;;;4.00;;
16173;SDS011;14031;50.158;8.626;2023-04-25T05:35:15;5.50;;;3.60;;
16173;SDS011;14031;50.158;8.626;2023-04-25T05:37:42;5.77;;;4.00;;
16173;SDS011;14031;50.158;8.626;2023-04-25T05:40:10;5.10;;;3.70;;
16173;SDS011;14031;50.158;8.626;2023-04-25T05:42:37;6.03;;;3.90;;
16173;SDS011;14031;50.158;8.626;2023-04-25T05:45:05;4.47;;;3.73;;
16173;SDS011;14031;50.158;8.626;2023-04-25T05:47:32;3.93;;;3.57;;
16173;SDS011;14031;50.158;8.626;2023-04-25T05:49:59;3.90;;;3.60;;
16173;SDS011;14031;50.158;8.626;2023-04-25T05:52:25;9.20;;;3.77;;
16173;SDS011;14031;50.158;8.626;2023-04-25T05:54:52;6.97;;;5.13;;
16173;SDS011;14031;50.158;8.626;2023-04-25T05:57:21;17.07;;;10.83;;
16173;SDS011;14031;50.158;8.626;2023-04-25T05:59:48;5.20;;;4.77;;
16173;SDS011;14031;50.158;8.626;2023-04-25T06:02:15;4.90;;;3.80;;
16173;SDS011;14031;50.158;8.626;2023-04-25T06:04:42;3.87;;;3.40;;
16173;SDS011;14031;50.158;8.626;2023-04-25T06:07:09;3.50;;;3.17;;
16173;SDS011;14031;50.158;8.626;2023-04-25T06:09:36;6.07;;;4.27;;
16173;SDS011;14031;50.158;8.626;2023-04-25T06:12:04;5.40;;;4.57;;
16173;SDS011;14031;50.158;8.626;2023-04-25T06:14:35;3.70;;;3.40;;
16173;SDS011;14031;50.158;8.626;2023-04-25T06:17:02;5.57;;;3.47;;
16173;SDS011;14031;50.158;8.626;2023-04-25T06:19:31;6.67;;;3.27;;
16173;SDS011;14031;50.158;8.626;2023-04-25T06:21:58;3.67;;;3.37;;
16173;SDS011;14031;50.158;8.626;2023-04-25T06:24:25;3.47;;;3.07;;
16173;SDS011;14031;50.158;8.626;2023-04-25T06:26:52;7.33;;;3.17;;
16173;SDS011;14031;50.158;8.626;2023-04-25T06:29:19;3.93;;;3.23;;
16173;SDS011;14031;50.158;8.626;2023-04-25T06:31:47;4.10;;;2.80;;
16173;SDS011;14031;50.158;8.626;2023-04-25T06:34:15;6.23;;;2.70;;
16173;SDS011;14031;50.158;8.626;2023-04-25T06:36:42;3.07;;;2.83;;
16173;SDS011;14031;50.158;8.626;2023-04-25T06:39:09;4.90;;;2.57;;
16173;SDS011;14031;50.158;8.626;2023-04-25T06:41:36;6.00;;;2.50;;
16173;SDS011;14031;50.158;8.626;2023-04-25T06:44:03;3.53;;;3.13;;
16173;SDS011;14031;50.158;8.626;2023-04-25T06:46:30;4.13;;;3.07;;
16173;SDS011;14031;50.158;8.626;2023-04-25T06:48:58;3.03;;;2.70;;
16173;SDS011;14031;50.158;8.626;2023-04-25T06:51:25;6.73;;;2.90;;
16173;SDS011;14031;50.158;8.626;2023-04-25T06:53:54;5.73;;;3.10;;
16173;SDS011;14031;50.158;8.626;2023-04-25T06:56:21;3.17;;;2.90;;
16173;SDS011;14031;50.158;8.626;2023-04-25T06:58:48;6.93;;;3.07;;
16173;SDS011;14031;50.158;8.626;2023-04-25T07:01:15;3.30;;;2.50;;
16173;SDS011;14031;50.158;8.626;2023-04-25T07:03:42;4.63;;;1.93;;
16173;SDS011;14031;50.158;8.626;2023-04-25T07:06:10;3.00;;;2.67;;
16173;SDS011;14031;50.158;8.626;2023-04-25T07:08:36;4.87;;;2.57;;
16173;SDS011;14031;50.158;8.626;2023-04-25T07:11:03;2.60;;;2.40;;
16173;SDS011;14031;50.158;8.626;2023-04-25T07:13:30;2.77;;;2.50;;
16173;SDS011;14031;50.158;8.626;2023-04-25T07:15:57;2.20;;;2.10;;
16173;SDS011;14031;50.158;8.626;2023-04-25T07:18:24;2.33;;;2.13;;
16173;SDS011;14031;50.158;8.626;2023-04-25T07:20:50;3.53;;;2.20;;
16173;SDS011;14031;50.158;8.626;2023-04-25T07:23:19;4.97;;;1.93;;
16173;SDS011;14031;50.158;8.626;2023-04-25T07:25:46;3.47;;;2.40;;
16173;SDS011;14031;50.158;8.626;2023-04-25T07:28:12;3.53;;;2.40;;
16173;SDS011;14031;50.158;8.626;2023-04-25T07:30:40;3.50;;;2.47;;
16173;SDS011;14031;50.158;8.626;2023-04-25T07:33:06;7.30;;;2.83;;
16173;SDS011;14031;50.158;8.626;2023-04-25T07:35:33;4.60;;;2.20;;
16173;SDS011;14031;50.158;8.626;2023-04-25T07:38:01;2.77;;;2.20;;
16173;SDS011;14031;50.158;8.626;2023-04-25T07:40:29;2.80;;;2.40;;
16173;SDS011;14031;50.158;8.626;2023-04-25T07:42:56;3.30;;;2.20;;
16173;SDS011;14031;50.158;8.626;2023-04-25T07:45:22;3.43;;;2.77;;
16173;SDS011;14031;50.158;8.626;2023-04-25T07:47:49;6.73;;;3.07;;
16173;SDS011;14031;50.158;8.626;2023-04-25T07:50:25;5.80;;;3.53;;
16173;SDS011;14031;50.158;8.626;2023-04-25T07:52:52;5.40;;;3.53;;
16173;SDS011;14031;50.158;8.626;2023-04-25T07:55:18;3.00;;;2.80;;
16173;SDS011;14031;50.158;8.626;2023-04-25T07:57:47;4.70;;;2.93;;
16173;SDS011;14031;50.158;8.626;2023-04-25T08:00:14;4.57;;;3.13;;
16173;SDS011;14031;50.158;8.626;2023-04-25T08:02:41;3.43;;;3.03;;
16173;SDS011;14031;50.158;8.626;2023-04-25T08:05:08;2.77;;;2.57;;
16173;SDS011;14031;50.158;8.626;2023-04-25T08:07:36;4.37;;;2.47;;
16173;SDS011;14031;50.158;8.626;2023-04-25T08:10:04;2.80;;;2.60;;
16173;SDS011;14031;50.158;8.626;2023-04-25T08:12:32;3.00;;;2.73;;
16173;SDS011;14031;50.158;8.626;2023-04-25T08:15:00;2.50;;;2.30;;
16173;SDS011;14031;50.158;8.626;2023-04-25T08:17:27;2.90;;;2.70;;
16173;SDS011;14031;50.158;8.626;2023-04-25T08:19:54;3.63;;;2.80;;
16173;SDS011;14031;50.158;8.626;2023-04-25T08:22:22;3.37;;;3.00;;
16173;SDS011;14031;50.158;8.626;2023-04-25T08:24:48;3.17;;;2.97;;
16173;SDS011;14031;50.158;8.626;2023-04-25T08:27:15;3.70;;;3.00;;
16173;SDS011;14031;50.158;8.626;2023-04-25T08:29:42;3.13;;;2.90;;
16173;SDS011;14031;50.158;8.626;2023-04-25T08:32:10;4.47;;;2.97;;
16173;SDS011;14031;50.158;8.626;2023-04-25T08:34:37;4.43;;;2.87;;
16173;SDS011;14031;50.158;8.626;2023-04-25T08:37:07;5.10;;;2.90;;
16173;SDS011;14031;50.158;8.626;2023-04-25T08:39:34;5.60;;;2.77;;
16173;SDS011;14031;50.158;8.626;2023-04-25T08:42:01;3.57;;;3.27;;
16173;SDS011;14031;50.158;8.626;2023-04-25T08:44:32;3.73;;;3.43;;
16173;SDS011;14031;50.158;8.626;2023-04-25T08:47:00;4.50;;;3.40;;
16173;SDS011;14031;50.158;8.626;2023-04-25T08:49:30;3.67;;;3.33;;
16173;SDS011;14031;50.158;8.626;2023-04-25T08:51:59;3.87;;;3.07;;
16173;SDS011;14031;50.158;8.626;2023-04-25T08:54:27;4.80;;;3.20;;
16173;SDS011;14031;50.158;8.626;2023-04-25T08:56:56;3.20;;;3.00;;
16173;SDS011;14031;50.158;8.626;2023-04-25T08:59:23;3.10;;;2.90;;
16173;SDS011;14031;50.158;8.626;2023-04-25T09:01:50;3.43;;;3.13;;
16173;SDS011;14031;50.158;8.626;2023-04-25T09:04:17;3.60;;;3.30;;
16173;SDS011;14031;50.158;8.626;2023-04-25T09:06:46;5.03;;;4.00;;
16173;SDS011;14031;50.158;8.626;2023-04-25T09:09:13;3.50;;;3.27;;
16173;SDS011;14031;50.158;8.626;2023-04-25T09:11:40;4.80;;;3.97;;
16173;SDS011;14031;50.158;8.626;2023-04-25T09:14:11;6.80;;;4.10;;
16173;SDS011;14031;50.158;8.626;2023-04-25T09:19:25;6.03;;;3.30;;
16173;SDS011;14031;50.158;8.626;2023-04-25T09:21:56;4.00;;;3.70;;
16173;SDS011;14031;50.158;8.626;2023-04-25T09:24:33;4.03;;;3.10;;
16173;SDS011;14031;50.158;8.626;2023-04-25T09:27:05;3.70;;;3.40;;
16173;SDS011;14031;50.158;8.626;2023-04-25T09:29:33;4.23;;;3.83;;
16173;SDS011;14031;50.158;8.626;2023-04-25T09:34:52;3.80;;;3.60;;
16173;SDS011;14031;50.158;8.626;2023-04-25T09:37:22;3.70;;;3.27;;
16173;SDS011;14031;50.158;8.626;2023-04-25T09:39:50;4.00;;;3.20;;
16173;SDS011;14031;50.158;8.626;2023-04-25T09:42:21;4.60;;;3.20;;
16173;SDS011;14031;50.158;8.626;2023-04-25T09:44:49;5.33;;;3.20;;
16173;SDS011;14031;50.158;8.626;2023-04-25T09:47:18;3.13;;;2.93;;
16173;SDS011;14031;50.158;8.626;2023-04-25T09:49:47;3.30;;;2.87;;
16173;SDS011;14031;50.158;8.626;2023-04-25T09:52:14;2.70;;;2.50;;
16173;SDS011;14031;50.158;8.626;2023-04-25T09:54:43;3.57;;;3.27;;
16173;SDS011;14031;50.158;8.626;2023-04-25T09:57:11;3.93;;;3.17;;
16173;SDS011;14031;50.158;8.626;2023-04-25T09:59:41;3.83;;;3.13;;
16173;SDS011;14031;50.158;8.626;2023-04-25T10:02:10;3.40;;;3.10;;
16173;SDS011;14031;50.158;8.626;2023-04-25T10:04:38;3.10;;;2.80;;
16173;SDS011;14031;50.158;8.626;2023-04-25T10:07:06;2.90;;;2.70;;
16173;SDS011;14031;50.158;8.626;2023-04-25T10:09:35;3.63;;;3.33;;
16173;SDS011;14031;50.158;8.626;2023-04-25T10:12:06;3.40;;;3.20;;
16173;SDS011;14031;50.158;8.626;2023-04-25T10:14:33;4.43;;;3.30;;
16173;SDS011;14031;50.158;8.626;2023-04-25T10:17:01;5.53;;;3.37;;
16173;SDS011;14031;50.158;8.626;2023-04-25T10:19:27;3.37;;;3.13;;
16173;SDS011;14031;50.158;8.626;2023-04-25T10:21:56;3.27;;;3.07;;
16173;SDS011;14031;50.158;8.626;2023-04-25T10:24:29;5.53;;;3.20;;
16173;SDS011;14031;50.158;8.626;2023-04-25T10:26:56;4.20;;;3.13;;
16173;SDS011;14031;50.158;8.626;2023-04-25T10:29:25;5.70;;;3.60;;
16173;SDS011;14031;50.158;8.626;2023-04-25T10:31:53;3.80;;;3.60;;
16173;SDS011;14031;50.158;8.626;2023-04-25T10:34:23;3.23;;;3.03;;
16173;SDS011;14031;50.158;8.626;2023-04-25T10:36:52;3.40;;;3.20;;
16173;SDS011;14031;50.158;8.626;2023-04-25T10:39:28;3.67;;;3.37;;
16173;SDS011;14031;50.158;8.626;2023-04-25T10:41:56;3.10;;;2.90;;
16173;SDS011;14031;50.158;8.626;2023-04-25T10:44:27;4.93;;;3.77;;
16173;SDS011;14031;50.158;8.626;2023-04-25T10:46:54;3.40;;;3.10;;
16173;SDS011;14031;50.158;8.626;2023-04-25T10:49:29;3.57;;;3.27;;
16173;SDS011;14031;50.158;8.626;2023-04-25T10:52:16;3.83;;;3.27;;
16173;SDS011;14031;50.158;8.626;2023-04-25T10:54:51;3.50;;;3.20;;
16173;SDS011;14031;50.158;8.626;2023-04-25T10:57:29;3.43;;;3.23;;
16173;SDS011;14031;50.158;8.626;2023-04-25T11:00:04;3.43;;;3.13;;
16173;SDS011;14031;50.158;8.626;2023-04-25T11:02:36;6.03;;;3.10;;
16173;SDS011;14031;50.158;8.626;2023-04-25T11:05:04;7.93;;;3.80;;
16173;SDS011;14031;50.158;8.626;2023-04-25T11:07:33;3.60;;;3.30;;
16173;SDS011;14031;50.158;8.626;2023-04-25T11:10:05;4.23;;;3.10;;
16173;SDS011;14031;50.158;8.626;2023-04-25T11:12:32;4.13;;;2.90;;
16173;SDS011;14031;50.158;8.626;2023-04-25T11:15:02;3.77;;;3.00;;
16173;SDS011;14031;50.158;8.626;2023-04-25T11:17:30;4.13;;;2.90;;
16173;SDS011;14031;50.158;8.626;2023-04-25T11:19:56;3.23;;;2.70;;
16173;SDS011;14031;50.158;8.626;2023-04-25T11:22:23;5.77;;;2.77;;
16173;SDS011;14031;50.158;8.626;2023-04-25T11:24:50;2.83;;;2.70;;
16173;SDS011;14031;50.158;8.626;2023-04-25T11:27:17;3.37;;;2.90;;
16173;SDS011;14031;50.158;8.626;2023-04-25T11:29:44;4.33;;;2.30;;
16173;SDS011;14031;50.158;8.626;2023-04-25T11:32:14;4.30;;;3.00;;
16173;SDS011;14031;50.158;8.626;2023-04-25T11:34:42;2.77;;;2.53;;
16173;SDS011;14031;50.158;8.626;2023-04-25T11:37:11;7.23;;;2.40;;
16173;SDS011;14031;50.158;8.626;2023-04-25T11:39:38;3.90;;;2.37;;
16173;SDS011;14031;50.158;8.626;2023-04-25T11:42:10;2.23;;;2.10;;
16173;SDS011;14031;50.158;8.626;2023-04-25T11:44:37;3.43;;;2.47;;
16173;SDS011;14031;50.158;8.626;2023-04-25T11:47:04;3.40;;;2.30;;
16173;SDS011;14031;50.158;8.626;2023-04-25T11:49:32;8.63;;;2.70;;
16173;SDS011;14031;50.158;8.626;2023-04-25T11:52:00;3.13;;;2.73;;
16173;SDS011;14031;50.158;8.626;2023-04-25T11:54:27;3.67;;;2.27;;
16173;SDS011;14031;50.158;8.626;2023-04-25T11:56:54;3.13;;;2.80;;
16173;SDS011;14031;50.158;8.626;2023-04-25T11:59:23;4.37;;;2.53;;
16173;SDS011;14031;50.158;8.626;2023-04-25T12:01:50;3.93;;;2.60;;
16173;SDS011;14031;50.158;8.626;2023-04-25T12:04:17;4.10;;;2.90;;
16173;SDS011;14031;50.158;8.626;2023-04-25T12:06:47;3.20;;;3.00;;
16173;SDS011;14031;50.158;8.626;2023-04-25T12:09:14;3.00;;;2.80;;
16173;SDS011;14031;50.158;8.626;2023-04-25T12:11:43;3.00;;;2.70;;
16173;SDS011;14031;50.158;8.626;2023-04-25T12:14:10;3.47;;;2.90;;
16173;SDS011;14031;50.158;8.626;2023-04-25T12:16:41;2.80;;;2.60;;
16173;SDS011;14031;50.158;8.626;2023-04-25T12:19:08;3.73;;;2.90;;
16173;SDS011;14031;50.158;8.626;2023-04-25T12:21:36;4.30;;;2.80;;
16173;SDS011;14031;50.158;8.626;2023-04-25T12:24:11;9.63;;;2.30;;
16173;SDS011;14031;50.158;8.626;2023-04-25T12:26:46;4.50;;;2.90;;
16173;SDS011;14031;50.158;8.626;2023-04-25T12:29:17;2.87;;;2.40;;
16173;SDS011;14031;50.158;8.626;2023-04-25T12:31:45;6.73;;;2.43;;
16173;SDS011;14031;50.158;8.626;2023-04-25T12:34:12;4.30;;;2.60;;
16173;SDS011;14031;50.158;8.626;2023-04-25T12:36:39;3.70;;;2.97;;
16173;SDS011;14031;50.158;8.626;2023-04-25T12:39:06;3.83;;;2.80;;
16173;SDS011;14031;50.158;8.626;2023-04-25T12:41:35;6.83;;;2.97;;
16173;SDS011;14031;50.158;8.626;2023-04-25T12:44:02;4.53;;;3.73;;
16173;SDS011;14031;50.158;8.626;2023-04-25T12:46:29;3.20;;;2.90;;
16173;SDS011;14031;50.158;8.626;2023-04-25T12:48:56;3.30;;;2.93;;
16173;SDS011;14031;50.158;8.626;2023-04-25T12:51:23;3.57;;;2.50;;
16173;SDS011;14031;50.158;8.626;2023-04-25T12:53:52;5.53;;;2.70;;
16173;SDS011;14031;50.158;8.626;2023-04-25T12:56:19;5.33;;;2.27;;
16173;SDS011;14031;50.158;8.626;2023-04-25T12:58:47;3.10;;;2.70;;
16173;SDS011;14031;50.158;8.626;2023-04-25T13:01:14;4.20;;;2.47;;
16173;SDS011;14031;50.158;8.626;2023-04-25T13:03:41;3.67;;;2.70;;
16173;SDS011;14031;50.158;8.626;2023-04-25T13:06:08;2.77;;;2.57;;
16173;SDS011;14031;50.158;8.626;2023-04-25T13:08:35;3.17;;;2.67;;
16173;SDS011;14031;50.158;8.626;2023-04-25T13:11:03;5.03;;;2.73;;
16173;SDS011;14031;50.158;8.626;2023-04-25T13:13:30;3.27;;;2.83;;
16173;SDS011;14031;50.158;8.626;2023-04-25T13:16:00;4.63;;;2.43;;
16173;SDS011;14031;50.158;8.626;2023-04-25T13:18:27;4.73;;;3.07;;
16173;SDS011;14031;50.158;8.626;2023-04-25T13:20:55;3.60;;;3.30;;
16173;SDS011;14031;50.158;8.626;2023-04-25T13:23:22;2.53;;;2.23;;
16173;SDS011;14031;50.158;8.626;2023-04-25T13:25:49;3.40;;;3.10;;
16173;SDS011;14031;50.158;8.626;2023-04-25T13:28:16;4.43;;;2.60;;
16173;SDS011;14031;50.158;8.626;2023-04-25T13:30:43;3.67;;;2.90;;
16173;SDS011;14031;50.158;8.626;2023-04-25T13:33:11;4.40;;;3.53;;
16173;SDS011;14031;50.158;8.626;2023-04-25T13:35:38;6.33;;;3.00;;
16173;SDS011;14031;50.158;8.626;2023-04-25T13:38:05;3.93;;;2.80;;
16173;SDS011;14031;50.158;8.626;2023-04-25T13:40:32;3.03;;;2.30;;
16173;SDS011;14031;50.158;8.626;2023-04-25T13:42:59;3.00;;;2.70;;
16173;SDS011;14031;50.158;8.626;2023-04-25T13:45:27;3.30;;;3.00;;
16173;SDS011;14031;50.158;8.626;2023-04-25T13:47:53;6.80;;;3.50;;
16173;SDS011;14031;50.158;8.626;2023-04-25T13:50:22;4.17;;;3.20;;
16173;SDS011;14031;50.158;8.626;2023-04-25T13:52:48;4.90;;;2.83;;
16173;SDS011;14031;50.158;8.626;2023-04-25T13:55:15;3.27;;;2.70;;
16173;SDS011;14031;50.158;8.626;2023-04-25T13:57:42;4.73;;;2.90;;
16173;SDS011;14031;50.158;8.626;2023-04-25T14:00:09;4.07;;;2.77;;
16173;SDS011;14031;50.158;8.626;2023-04-25T14:02:38;2.90;;;2.50;;
16173;SDS011;14031;50.158;8.626;2023-04-25T14:05:05;3.93;;;2.50;;
16173;SDS011;14031;50.158;8.626;2023-04-25T14:07:34;3.35;;;2.22;;
16173;SDS011;14031;50.158;8.626;2023-04-25T14:10:01;3.17;;;2.50;;
16173;SDS011;14031;50.158;8.626;2023-04-25T14:12:29;4.50;;;2.33;;
16173;SDS011;14031;50.158;8.626;2023-04-25T14:14:56;2.75;;;2.40;;
16173;SDS011;14031;50.158;8.626;2023-04-25T14:17:22;2.97;;;2.07;;
16173;SDS011;14031;50.158;8.626;2023-04-25T14:19:49;5.10;;;2.10;;
16173;SDS011;14031;50.158;8.626;2023-04-25T14:22:16;3.00;;;2.07;;
16173;SDS011;14031;50.158;8.626;2023-04-25T14:24:45;2.37;;;2.10;;
16173;SDS011;14031;50.158;8.626;2023-04-25T14:27:12;2.63;;;2.20;;
16173;SDS011;14031;50.158;8.626;2023-04-25T14:29:39;3.90;;;2.10;;
16173;SDS011;14031;50.158;8.626;2023-04-25T14:32:06;2.40;;;2.03;;
16173;SDS011;14031;50.158;8.626;2023-04-25T14:34:33;2.40;;;1.90;;
16173;SDS011;14031;50.158;8.626;2023-04-25T14:37:00;2.97;;;1.87;;
16173;SDS011;14031;50.158;8.626;2023-04-25T14:39:26;4.83;;;1.90;;
16173;SDS011;14031;50.158;8.626;2023-04-25T14:41:55;4.03;;;1.87;;
16173;SDS011;14031;50.158;8.626;2023-04-25T14:44:21;6.70;;;1.97;;
16173;SDS011;14031;50.158;8.626;2023-04-25T14:46:48;2.77;;;2.30;;
16173;SDS011;14031;50.158;8.626;2023-04-25T14:49:16;3.13;;;1.80;;
16173;SDS011;14031;50.158;8.626;2023-04-25T14:51:43;2.77;;;2.00;;
16173;SDS011;14031;50.158;8.626;2023-04-25T14:54:10;3.93;;;2.10;;
16173;SDS011;14031;50.158;8.626;2023-04-25T14:56:37;2.23;;;2.00;;